createdAt,value
2022-10-28T00:04:32.986Z,100149.53
2022-10-28T00:09:36.122Z,100129.66
2022-10-28T00:14:38.800Z,100124.34
2022-10-28T00:19:41.350Z,100146.00
2022-10-28T00:24:43.937Z,100132.25
2022-10-28T00:29:46.512Z,100126.78
2022-10-28T00:34:49.063Z,100151.25
2022-10-28T00:39:51.621Z,100155.75
2022-10-28T00:44:59.694Z,100154.94
2022-10-28T00:50:20.916Z,100154.31
2022-10-28T00:55:24.721Z,100148.22
2022-10-28T01:00:27.682Z,100154.22
2022-10-28T01:05:33.518Z,100152.69
2022-10-28T01:10:59.233Z,100154.50
2022-10-28T01:16:16.648Z,100149.56
2022-10-28T01:21:51.605Z,100141.16
2022-10-28T01:27:03.130Z,100144.41
2022-10-28T01:32:17.456Z,100131.56
2022-10-28T01:38:01.371Z,100125.66
2022-10-28T01:43:16.329Z,100128.25
2022-10-28T01:48:30.834Z,100124.63
2022-10-28T01:53:38.312Z,100110.00
2022-10-28T01:58:43.009Z,100133.97
2022-10-28T02:03:47.738Z,100125.28
2022-10-28T02:09:00.173Z,100109.72
2022-10-28T02:14:24.420Z,100126.53
2022-10-28T02:19:48.213Z,100123.97
2022-10-28T02:25:08.105Z,100135.16
2022-10-28T02:30:24.323Z,100124.09
2022-10-28T02:35:57.714Z,100128.56
2022-10-28T02:41:06.346Z,100131.91
2022-10-28T02:46:11.206Z,100141.31
2022-10-28T02:51:34.500Z,100138.94
2022-10-28T02:56:49.296Z,100136.28
2022-10-28T03:01:52.395Z,100131.97
2022-10-28T03:06:55.097Z,100140.56
2022-10-28T03:11:57.635Z,100144.06
2022-10-28T03:17:00.306Z,100135.50
2022-10-28T03:22:03.115Z,100138.09
2022-10-28T03:27:05.765Z,100113.00
2022-10-28T03:32:08.379Z,100131.28
2022-10-28T03:37:11.062Z,100123.59
2022-10-28T03:42:13.647Z,100110.66
2022-10-28T03:47:16.342Z,100122.66
2022-10-28T03:52:19.024Z,100120.00
2022-10-28T03:57:21.563Z,100104.63
2022-10-28T04:02:24.404Z,100088.94
2022-10-28T04:07:27.037Z,100108.97
2022-10-28T04:12:29.579Z,100102.84
2022-10-28T04:17:34.636Z,100084.03
2022-10-28T04:22:37.282Z,100107.25
2022-10-28T04:27:39.896Z,100077.22
2022-10-28T04:32:43.650Z,100090.28
2022-10-28T04:37:46.285Z,100104.91
2022-10-28T04:42:48.893Z,100109.06
2022-10-28T04:47:57.324Z,100117.59
2022-10-28T04:53:00.336Z,100087.69
2022-10-28T04:58:02.993Z,100095.53
2022-10-28T05:03:05.674Z,100100.00
2022-10-28T05:08:08.365Z,100085.44
2022-10-28T05:13:10.933Z,100106.19
2022-10-28T05:18:13.546Z,100109.66
2022-10-28T05:23:16.153Z,100108.81
2022-10-28T05:28:19.178Z,100100.28
2022-10-28T05:33:21.935Z,100111.53
2022-10-28T05:43:53.340Z,100100.22
2022-10-28T05:48:55.969Z,100109.94
2022-10-28T05:53:58.610Z,100113.50
2022-10-28T05:59:01.245Z,100106.56
2022-10-28T06:04:04.937Z,100112.66
2022-10-28T06:09:07.635Z,100118.13
2022-10-28T06:14:08.760Z,100107.00
2022-10-28T06:19:11.379Z,100097.16
2022-10-28T06:24:14.058Z,100127.22
2022-10-28T06:29:17.080Z,100093.25
2022-10-28T06:34:20.201Z,100102.28
2022-10-28T06:39:22.957Z,100092.97
2022-10-28T06:44:25.566Z,100095.72
2022-10-28T06:49:29.634Z,100070.22
2022-10-28T06:54:32.183Z,100047.06
2022-10-28T06:59:34.730Z,100086.97
2022-10-28T07:04:37.698Z,100079.22
2022-10-28T07:09:40.386Z,100068.97
2022-10-28T07:14:42.917Z,100066.41
2022-10-28T07:19:45.548Z,100075.75
2022-10-28T07:24:49.031Z,100072.50
2022-10-28T07:29:51.603Z,100081.16
2022-10-28T07:34:54.279Z,100069.06
2022-10-28T07:39:59.632Z,100079.44
2022-10-28T07:45:02.292Z,100072.63
2022-10-28T07:50:06.954Z,100042.53
2022-10-28T07:55:13.072Z,100070.13
2022-10-28T08:00:17.129Z,100081.19
2022-10-28T08:05:20.408Z,100077.03
2022-10-28T08:10:23.447Z,100066.78
2022-10-28T08:15:32.130Z,100062.44
2022-10-28T08:20:34.767Z,100052.09
2022-10-28T08:25:37.877Z,100067.63
2022-10-28T08:30:56.676Z,100073.63
2022-10-28T08:36:00.626Z,100074.47
2022-10-28T08:41:25.212Z,100054.59
2022-10-28T08:47:01.555Z,100058.03
2022-10-28T08:52:14.503Z,100046.91
2022-10-28T08:57:21.577Z,100047.69
2022-10-28T09:02:32.018Z,100043.19
2022-10-28T09:07:37.438Z,100051.00
2022-10-28T09:13:11.778Z,100049.47
2022-10-28T09:18:23.437Z,100039.13
2022-10-28T09:23:36.207Z,100026.19
2022-10-28T09:34:44.845Z,100006.75
2022-10-28T09:39:51.681Z,100004.97
2022-10-28T09:45:05.178Z,100006.94
2022-10-28T09:50:17.625Z,100006.13
2022-10-28T09:55:22.479Z,99995.91
2022-10-28T10:00:25.323Z,99994.13
2022-10-28T10:05:30.458Z,99965.41
2022-10-28T10:10:44.846Z,99967.91
2022-10-28T10:15:54.175Z,99981.69
2022-10-28T10:20:58.754Z,99971.41
2022-10-28T10:26:12.508Z,99951.75
2022-10-28T10:31:23.403Z,99956.88
2022-10-28T10:36:29.151Z,99951.78
2022-10-28T10:41:39.432Z,99961.31
2022-10-28T10:46:42.122Z,99948.31
2022-10-28T10:51:59.450Z,99933.56
2022-10-28T10:57:20.991Z,99911.16
2022-10-28T11:02:38.100Z,99931.06
2022-10-28T11:07:48.326Z,99932.56
2022-10-28T11:13:12.449Z,99907.38
2022-10-28T11:18:21.050Z,99915.06
2022-10-28T11:23:29.655Z,99923.81
2022-10-28T11:28:37.290Z,99926.31
2022-10-28T11:33:50.672Z,99913.53
2022-10-28T11:39:25.561Z,99888.78
2022-10-28T11:44:43.408Z,99925.00
2022-10-28T11:49:52.571Z,99919.63
2022-10-28T11:55:04.084Z,99909.19
2022-10-28T12:00:33.695Z,99901.25
2022-10-28T12:05:49.804Z,99892.59
2022-10-28T12:11:15.552Z,99885.78
2022-10-28T12:16:50.631Z,99907.38
2022-10-28T12:22:00.106Z,99897.94
2022-10-28T12:27:15.433Z,99880.78
2022-10-28T12:32:28.188Z,99859.34
2022-10-28T12:37:42.175Z,99880.84
2022-10-28T12:42:54.469Z,99875.72
2022-10-28T12:48:22.382Z,99881.72
2022-10-28T12:53:49.043Z,99887.69
2022-10-28T12:58:57.811Z,99883.44
2022-10-28T13:04:01.496Z,99870.53
2022-10-28T13:09:25.279Z,99880.09
2022-10-28T13:14:39.525Z,99876.63
2022-10-28T13:19:56.874Z,99873.28
2022-10-28T13:24:59.454Z,99866.44
2022-10-28T13:30:03.656Z,99861.38
2022-10-28T13:35:11.873Z,99873.38
2022-10-28T13:40:41.355Z,99874.22
2022-10-28T13:45:55.173Z,99871.66
2022-10-28T13:51:09.886Z,99863.09
2022-10-28T13:56:21.190Z,99864.75
2022-10-28T14:01:42.060Z,99854.44
2022-10-28T14:06:44.917Z,99843.28
2022-10-28T14:12:03.255Z,99846.75
2022-10-28T14:17:14.597Z,99840.78
2022-10-28T14:22:29.079Z,99857.09
2022-10-28T14:27:41.834Z,99850.19
2022-10-28T14:32:50.286Z,99844.19
2022-10-28T14:38:11.184Z,99843.41
2022-10-28T14:43:25.133Z,99848.59
2022-10-28T14:48:56.168Z,99839.91
2022-10-28T14:54:02.383Z,99825.31
2022-10-28T14:59:26.062Z,99843.41
2022-10-28T15:04:30.151Z,99813.34
2022-10-28T15:09:35.111Z,99829.69
2022-10-28T15:14:52.362Z,99838.25
2022-10-28T15:19:57.543Z,99824.50
2022-10-28T15:25:02.745Z,99821.94
2022-10-28T15:30:20.916Z,99807.25
2022-10-28T15:35:49.417Z,99809.06
2022-10-28T15:40:52.572Z,99804.75
2022-10-28T15:46:08.756Z,99804.81
2022-10-28T15:51:17.363Z,99791.00
2022-10-28T15:56:25.970Z,99802.25
2022-10-28T16:01:38.359Z,99808.25
2022-10-28T16:06:41.136Z,99780.75
2022-10-28T16:11:53.435Z,99818.56
2022-10-28T16:16:57.930Z,99804.78
2022-10-28T16:22:00.521Z,99804.72
2022-10-28T16:27:19.038Z,99793.59
2022-10-28T16:32:49.096Z,99799.56
2022-10-28T16:37:55.518Z,99789.19
2022-10-28T16:42:58.783Z,99793.50
2022-10-28T16:48:01.416Z,99786.63
2022-10-28T16:53:04.090Z,99783.19
2022-10-28T16:58:07.027Z,99775.50
2022-10-28T17:03:17.060Z,99775.44
2022-10-28T17:08:31.068Z,99764.25
2022-10-28T17:13:39.566Z,99747.00
2022-10-28T17:18:43.667Z,99770.19
2022-10-28T17:23:46.357Z,99767.53
2022-10-28T17:28:52.631Z,99767.59
2022-10-28T17:33:55.667Z,99762.41
2022-10-28T17:38:58.452Z,99756.34
2022-10-28T17:44:01.276Z,99734.00
2022-10-28T17:49:08.550Z,99750.28
2022-10-28T17:54:11.566Z,99723.69
2022-10-28T17:59:14.751Z,99754.69
2022-10-28T18:04:17.453Z,99746.00
2022-10-28T18:09:20.444Z,99746.91
2022-10-28T18:14:23.223Z,99738.25
2022-10-28T18:19:25.967Z,99712.47
2022-10-28T18:24:28.548Z,99741.72
2022-10-28T18:29:31.114Z,99736.56
2022-10-28T18:34:33.856Z,99731.44
2022-10-28T18:39:36.632Z,99742.63
2022-10-28T18:44:39.215Z,99725.41
2022-10-28T18:49:41.887Z,99709.97
2022-10-28T18:54:44.393Z,99733.97
2022-10-28T19:00:16.894Z,99730.53
2022-10-28T19:05:09.593Z,99742.69
2022-10-28T19:10:12.569Z,99743.50
2022-10-28T19:15:15.909Z,99725.47
2022-10-28T19:20:18.839Z,99708.25
2022-10-28T19:25:21.463Z,99730.53
2022-10-28T19:30:24.057Z,99708.22
2022-10-28T19:35:26.687Z,99708.19
2022-10-28T19:40:29.402Z,99712.47
2022-10-28T19:45:32.156Z,99720.25
2022-10-28T19:50:34.870Z,99715.88
2022-10-28T19:55:37.506Z,99722.75
2022-10-28T20:00:40.064Z,99716.72
2022-10-28T20:05:42.685Z,99724.41
2022-10-28T20:10:46.573Z,99710.63
2022-10-28T20:15:49.153Z,99704.53
2022-10-28T20:20:51.761Z,99708.78
2022-10-28T20:25:54.359Z,99673.59
2022-10-28T20:30:58.958Z,99688.06
2022-10-28T20:36:01.942Z,99685.47
2022-10-28T20:41:04.558Z,99651.97
2022-10-28T20:46:09.350Z,99670.81
2022-10-28T20:51:13.374Z,99669.16
2022-10-28T20:56:21.094Z,99649.28
2022-10-28T21:01:29.102Z,99644.97
2022-10-28T21:06:32.734Z,99648.31
2022-10-28T21:11:35.361Z,99619.13
2022-10-28T21:16:37.955Z,99644.09
2022-10-28T21:21:40.756Z,99643.28
2022-10-28T21:26:46.074Z,99639.97
2022-10-28T21:31:51.063Z,99627.25
2022-10-28T21:36:53.611Z,99625.41
2022-10-28T21:41:56.182Z,99632.19
2022-10-28T21:46:59.026Z,99622.59
2022-10-28T21:52:01.752Z,99618.13
2022-10-28T21:57:05.290Z,99619.09
2022-10-28T22:02:08.114Z,99625.19
2022-10-28T22:07:10.820Z,99625.13
2022-10-28T22:12:13.630Z,99597.59
2022-10-28T22:17:16.197Z,99610.63
2022-10-28T22:22:19.029Z,99600.25
2022-10-28T22:27:21.807Z,99599.25
2022-10-28T22:32:24.354Z,99596.53
2022-10-28T22:37:26.949Z,99594.72
2022-10-28T22:42:29.492Z,99585.19
2022-10-28T22:47:32.056Z,99589.50
2022-10-28T22:52:34.923Z,99554.22
2022-10-28T22:57:37.513Z,99562.78
2022-10-28T23:02:40.265Z,99574.75
2022-10-28T23:07:42.956Z,99539.06
2022-10-28T23:12:45.655Z,99564.78
2022-10-28T23:17:49.419Z,99567.41
2022-10-28T23:22:56.327Z,99560.41
2022-10-28T23:27:59.124Z,99561.25
2022-10-28T23:33:01.690Z,99568.94
2022-10-28T23:38:05.344Z,99569.63
2022-10-28T23:43:07.953Z,99556.84
2022-10-28T23:48:10.513Z,99550.69
2022-10-28T23:53:13.284Z,99555.03
2022-10-28T23:58:17.400Z,99540.41
